sensor_id;sensor_type;location;lat;lon;timestamp;temperature;humidity
2002;DHT22;1003;48.002;7.788;2023-04-16T00:01:03;8.60;99.90
2002;DHT22;1003;48.002;7.788;2023-04-16T00:03:31;8.60;99.90
2002;DHT22;1003;48.002;7.788;2023-04-16T00:05:58;8.60;99.90
2002;DHT22;1003;48.002;7.788;2023-04-16T00:08:25;8.60;99.90
2002;DHT22;1003;48.002;7.788;2023-04-16T00:10:53;8.60;99.90
2002;DHT22;1003;48.002;7.788;2023-04-16T00:13:21;8.60;99.90
2002;DHT22;1003;48.002;7.788;2023-04-16T00:15:48;8.60;99.90
2002;DHT22;1003;48.002;7.788;2023-04-16T00:18:18;8.60;99.90
2002;DHT22;1003;48.002;7.788;2023-04-16T00:20:46;8.60;99.90
2002;DHT22;1003;48.002;7.788;2023-04-16T00:23:15;8.50;99.90
2002;DHT22;1003;48.002;7.788;2023-04-16T00:25:45;8.60;99.90
2002;DHT22;1003;48.002;7.788;2023-04-16T00:28:13;8.50;99.90
2002;DHT22;1003;48.002;7.788;2023-04-16T00:30:41;8.50;99.90
2002;DHT22;1003;48.002;7.788;2023-04-16T00:33:08;8.50;99.90
2002;DHT22;1003;48.002;7.788;2023-04-16T00:35:37;8.50;99.90
2002;DHT22;1003;48.002;7.788;2023-04-16T00:38:07;8.50;99.90
2002;DHT22;1003;48.002;7.788;2023-04-16T00:40:34;8.50;99.90
2002;DHT22;1003;48.002;7.788;2023-04-16T00:43:02;8.50;99.90
2002;DHT22;1003;48.002;7.788;2023-04-16T00:45:29;8.50;99.90
2002;DHT22;1003;48.002;7.788;2023-04-16T00:47:58;8.50;99.90
2002;DHT22;1003;48.002;7.788;2023-04-16T00:50:26;8.50;99.90
2002;DHT22;1003;48.002;7.788;2023-04-16T00:52:56;8.60;99.90
2002;DHT22;1003;48.002;7.788;2023-04-16T00:55:24;8.50;99.90
2002;DHT22;1003;48.002;7.788;2023-04-16T00:57:51;8.50;99.90
2002;DHT22;1003;48.002;7.788;2023-04-16T01:00:19;8.50;99.90
2002;DHT22;1003;48.002;7.788;2023-04-16T01:02:51;8.50;99.90
2002;DHT22;1003;48.002;7.788;2023-04-16T01:05:22;8.50;99.90
2002;DHT22;1003;48.002;7.788;2023-04-16T01:07:49;8.50;99.90
2002;DHT22;1003;48.002;7.788;2023-04-16T01:10:17;8.50;99.90
2002;DHT22;1003;48.002;7.788;2023-04-16T01:12:44;8.50;99.90
2002;DHT22;1003;48.002;7.788;2023-04-16T01:15:15;8.50;99.90
2002;DHT22;1003;48.002;7.788;2023-04-16T01:17:43;8.40;99.90
2002;DHT22;1003;48.002;7.788;2023-04-16T01:20:11;8.50;99.90
2002;DHT22;1003;48.002;7.788;2023-04-16T01:22:42;8.50;99.90
2002;DHT22;1003;48.002;7.788;2023-04-16T01:25:13;8.50;99.90
2002;DHT22;1003;48.002;7.788;2023-04-16T01:27:41;8.50;99.90
2002;DHT22;1003;48.002;7.788;2023-04-16T01:30:09;8.50;99.90
2002;DHT22;1003;48.002;7.788;2023-04-16T01:32:36;8.50;99.90
2002;DHT22;1003;48.002;7.788;2023-04-16T01:35:04;8.60;99.90
2002;DHT22;1003;48.002;7.788;2023-04-16T01:37:33;8.60;99.90
2002;DHT22;1003;48.002;7.788;2023-04-16T01:40:01;8.60;99.90
2002;DHT22;1003;48.002;7.788;2023-04-16T01:42:29;8.60;99.90
2002;DHT22;1003;48.002;7.788;2023-04-16T01:44:56;8.60;99.90
2002;DHT22;1003;48.002;7.788;2023-04-16T01:47:23;8.60;99.90
2002;DHT22;1003;48.002;7.788;2023-04-16T01:49:50;8.60;99.90
2002;DHT22;1003;48.002;7.788;2023-04-16T01:52:18;8.60;99.90
2002;DHT22;1003;48.002;7.788;2023-04-16T01:54:45;8.50;99.90
2002;DHT22;1003;48.002;7.788;2023-04-16T01:57:14;8.50;99.90
2002;DHT22;1003;48.002;7.788;2023-04-16T01:59:41;8.50;99.90
2002;DHT22;1003;48.002;7.788;2023-04-16T02:02:12;8.50;99.90
2002;DHT22;1003;48.002;7.788;2023-04-16T02:04:43;8.50;99.90
2002;DHT22;1003;48.002;7.788;2023-04-16T02:07:11;8.50;99.90
2002;DHT22;1003;48.002;7.788;2023-04-16T02:09:39;8.50;99.90
2002;DHT22;1003;48.002;7.788;2023-04-16T02:12:07;8.50;99.90
2002;DHT22;1003;48.002;7.788;2023-04-16T02:14:37;8.60;99.90
2002;DHT22;1003;48.002;7.788;2023-04-16T02:17:04;8.60;99.90
2002;DHT22;1003;48.002;7.788;2023-04-16T02:19:31;8.60;99.90
2002;DHT22;1003;48.002;7.788;2023-04-16T02:21:58;8.60;99.90
2002;DHT22;1003;48.002;7.788;2023-04-16T02:24:26;8.60;99.90
2002;DHT22;1003;48.002;7.788;2023-04-16T02:26:53;8.60;99.90
2002;DHT22;1003;48.002;7.788;2023-04-16T02:29:23;8.60;99.90
2002;DHT22;1003;48.002;7.788;2023-04-16T02:31:51;8.60;99.90
2002;DHT22;1003;48.002;7.788;2023-04-16T02:34:19;8.60;99.90
2002;DHT22;1003;48.002;7.788;2023-04-16T02:36:46;8.50;99.90
2002;DHT22;1003;48.002;7.788;2023-04-16T02:41:49;8.50;99.90
2002;DHT22;1003;48.002;7.788;2023-04-16T02:44:16;8.60;99.90
2002;DHT22;1003;48.002;7.788;2023-04-16T02:46:44;8.60;99.90
2002;DHT22;1003;48.002;7.788;2023-04-16T02:49:12;8.50;99.90
2002;DHT22;1003;48.002;7.788;2023-04-16T02:51:39;8.50;99.90
2002;DHT22;1003;48.002;7.788;2023-04-16T02:54:06;8.40;99.90
2002;DHT22;1003;48.002;7.788;2023-04-16T02:56:34;8.50;99.90
2002;DHT22;1003;48.002;7.788;2023-04-16T02:59:01;8.50;99.90
2002;DHT22;1003;48.002;7.788;2023-04-16T03:01:28;8.50;99.90
2002;DHT22;1003;48.002;7.788;2023-04-16T03:03:55;8.50;99.90
2002;DHT22;1003;48.002;7.788;2023-04-16T03:06:24;8.50;99.90
2002;DHT22;1003;48.002;7.788;2023-04-16T03:08:51;8.50;99.90
2002;DHT22;1003;48.002;7.788;2023-04-16T03:11:18;8.50;99.90
2002;DHT22;1003;48.002;7.788;2023-04-16T03:13:47;8.60;99.90
2002;DHT22;1003;48.002;7.788;2023-04-16T03:16:21;8.60;99.90
2002;DHT22;1003;48.002;7.788;2023-04-16T03:18:48;8.50;99.90
2002;DHT22;1003;48.002;7.788;2023-04-16T03:21:15;8.50;99.90
2002;DHT22;1003;48.002;7.788;2023-04-16T03:23:44;8.50;99.90
2002;DHT22;1003;48.002;7.788;2023-04-16T03:26:11;8.60;99.90
2002;DHT22;1003;48.002;7.788;2023-04-16T03:28:38;8.50;99.90
2002;DHT22;1003;48.002;7.788;2023-04-16T03:31:06;8.50;99.90
2002;DHT22;1003;48.002;7.788;2023-04-16T03:33:33;8.50;99.90
2002;DHT22;1003;48.002;7.788;2023-04-16T03:36:00;8.50;99.90
2002;DHT22;1003;48.002;7.788;2023-04-16T03:38:28;8.50;99.90
2002;DHT22;1003;48.002;7.788;2023-04-16T03:40:56;8.50;99.90
2002;DHT22;1003;48.002;7.788;2023-04-16T03:43:24;8.50;99.90
2002;DHT22;1003;48.002;7.788;2023-04-16T03:45:53;8.50;99.90
2002;DHT22;1003;48.002;7.788;2023-04-16T03:48:21;8.50;99.90
2002;DHT22;1003;48.002;7.788;2023-04-16T03:50:48;8.50;99.90
2002;DHT22;1003;48.002;7.788;2023-04-16T03:53:17;8.50;99.90
2002;DHT22;1003;48.002;7.788;2023-04-16T03:55:48;8.50;99.90
2002;DHT22;1003;48.002;7.788;2023-04-16T03:58:18;8.50;99.90
2002;DHT22;1003;48.002;7.788;2023-04-16T04:00:45;8.50;99.90
2002;DHT22;1003;48.002;7.788;2023-04-16T04:03:16;8.50;99.90
2002;DHT22;1003;48.002;7.788;2023-04-16T04:05:43;8.50;99.90
2002;DHT22;1003;48.002;7.788;2023-04-16T04:08:10;8.50;99.90
2002;DHT22;1003;48.002;7.788;2023-04-16T04:10:38;8.50;99.90
2002;DHT22;1003;48.002;7.788;2023-04-16T04:13:05;8.50;99.90
2002;DHT22;1003;48.002;7.788;2023-04-16T04:15:34;8.50;99.90
2002;DHT22;1003;48.002;7.788;2023-04-16T04:18:01;8.50;99.90
2002;DHT22;1003;48.002;7.788;2023-04-16T04:20:29;8.50;99.90
2002;DHT22;1003;48.002;7.788;2023-04-16T04:22:56;8.40;99.90
2002;DHT22;1003;48.002;7.788;2023-04-16T04:25:24;8.40;99.90
2002;DHT22;1003;48.002;7.788;2023-04-16T04:27:51;8.40;99.90
2002;DHT22;1003;48.002;7.788;2023-04-16T04:30:18;8.40;99.90
2002;DHT22;1003;48.002;7.788;2023-04-16T04:32:51;8.40;99.90
2002;DHT22;1003;48.002;7.788;2023-04-16T04:35:19;8.30;99.90
2002;DHT22;1003;48.002;7.788;2023-04-16T04:37:46;8.30;99.90
2002;DHT22;1003;48.002;7.788;2023-04-16T04:40:13;8.40;99.90
2002;DHT22;1003;48.002;7.788;2023-04-16T04:42:41;8.30;99.90
2002;DHT22;1003;48.002;7.788;2023-04-16T04:45:09;8.30;99.90
2002;DHT22;1003;48.002;7.788;2023-04-16T04:47:37;8.40;99.90
2002;DHT22;1003;48.002;7.788;2023-04-16T04:50:07;8.40;99.90
2002;DHT22;1003;48.002;7.788;2023-04-16T04:52:35;8.40;99.90
2002;DHT22;1003;48.002;7.788;2023-04-16T04:55:03;8.40;99.90
2002;DHT22;1003;48.002;7.788;2023-04-16T04:57:30;8.50;99.90
2002;DHT22;1003;48.002;7.788;2023-04-16T04:59:57;8.50;99.90
2002;DHT22;1003;48.002;7.788;2023-04-16T05:02:24;8.50;99.90
2002;DHT22;1003;48.002;7.788;2023-04-16T05:04:51;8.50;99.90
2002;DHT22;1003;48.002;7.788;2023-04-16T05:07:20;8.50;99.90
2002;DHT22;1003;48.002;7.788;2023-04-16T05:09:47;8.60;99.90
2002;DHT22;1003;48.002;7.788;2023-04-16T05:12:15;8.50;99.90
2002;DHT22;1003;48.002;7.788;2023-04-16T05:14:42;8.60;99.90
2002;DHT22;1003;48.002;7.788;2023-04-16T05:17:11;8.50;99.90
2002;DHT22;1003;48.002;7.788;2023-04-16T05:19:38;8.50;99.90
2002;DHT22;1003;48.002;7.788;2023-04-16T05:22:06;8.40;99.90
2002;DHT22;1003;48.002;7.788;2023-04-16T05:24:34;8.40;99.90
2002;DHT22;1003;48.002;7.788;2023-04-16T05:27:01;8.40;99.90
2002;DHT22;1003;48.002;7.788;2023-04-16T05:29:28;8.40;99.90
2002;DHT22;1003;48.002;7.788;2023-04-16T05:31:56;8.50;99.90
2002;DHT22;1003;48.002;7.788;2023-04-16T05:34:23;8.40;99.90
2002;DHT22;1003;48.002;7.788;2023-04-16T05:36:50;8.40;99.90
2002;DHT22;1003;48.002;7.788;2023-04-16T05:39:20;8.40;99.90
2002;DHT22;1003;48.002;7.788;2023-04-16T05:41:49;8.30;99.90
2002;DHT22;1003;48.002;7.788;2023-04-16T05:44:16;8.30;99.90
2002;DHT22;1003;48.002;7.788;2023-04-16T05:46:43;8.30;99.90
2002;DHT22;1003;48.002;7.788;2023-04-16T05:49:16;8.30;99.90
2002;DHT22;1003;48.002;7.788;2023-04-16T05:51:45;8.30;99.90
2002;DHT22;1003;48.002;7.788;2023-04-16T05:54:12;8.30;99.90
2002;DHT22;1003;48.002;7.788;2023-04-16T05:56:40;8.40;99.90
2002;DHT22;1003;48.002;7.788;2023-04-16T05:59:08;8.30;99.90
2002;DHT22;1003;48.002;7.788;2023-04-16T06:01:35;8.40;99.90
2002;DHT22;1003;48.002;7.788;2023-04-16T06:04:03;8.30;99.90
2002;DHT22;1003;48.002;7.788;2023-04-16T06:06:30;8.30;99.90
2002;DHT22;1003;48.002;7.788;2023-04-16T06:08:57;8.30;99.90
2002;DHT22;1003;48.002;7.788;2023-04-16T06:11:25;8.40;99.90
2002;DHT22;1003;48.002;7.788;2023-04-16T06:13:53;8.40;99.90
2002;DHT22;1003;48.002;7.788;2023-04-16T06:16:22;8.40;99.90
2002;DHT22;1003;48.002;7.788;2023-04-16T06:18:53;8.40;99.90
2002;DHT22;1003;48.002;7.788;2023-04-16T06:21:24;8.40;99.90
2002;DHT22;1003;48.002;7.788;2023-04-16T06:23:53;8.40;99.90
2002;DHT22;1003;48.002;7.788;2023-04-16T06:26:20;8.40;99.90
2002;DHT22;1003;48.002;7.788;2023-04-16T06:28:47;8.50;99.90
2002;DHT22;1003;48.002;7.788;2023-04-16T06:31:15;8.50;99.90
2002;DHT22;1003;48.002;7.788;2023-04-16T06:33:47;8.60;99.90
2002;DHT22;1003;48.002;7.788;2023-04-16T06:36:21;8.60;99.90
2002;DHT22;1003;48.002;7.788;2023-04-16T06:38:48;8.70;99.90
2002;DHT22;1003;48.002;7.788;2023-04-16T06:41:15;8.70;99.90
2002;DHT22;1003;48.002;7.788;2023-04-16T06:43:43;8.70;99.90
2002;DHT22;1003;48.002;7.788;2023-04-16T06:46:11;8.70;99.90
2002;DHT22;1003;48.002;7.788;2023-04-16T06:48:38;8.70;99.90
2002;DHT22;1003;48.002;7.788;2023-04-16T06:51:13;8.70;99.90
2002;DHT22;1003;48.002;7.788;2023-04-16T06:53:51;8.70;99.90
2002;DHT22;1003;48.002;7.788;2023-04-16T06:56:18;8.80;99.90
2002;DHT22;1003;48.002;7.788;2023-04-16T06:58:45;9.00;99.90
2002;DHT22;1003;48.002;7.788;2023-04-16T07:01:14;9.00;99.90
2002;DHT22;1003;48.002;7.788;2023-04-16T07:03:41;9.00;99.90
2002;DHT22;1003;48.002;7.788;2023-04-16T07:06:10;9.10;99.90
2002;DHT22;1003;48.002;7.788;2023-04-16T07:08:41;8.90;99.90
2002;DHT22;1003;48.002;7.788;2023-04-16T07:11:09;9.00;99.90
2002;DHT22;1003;48.002;7.788;2023-04-16T07:13:36;8.90;99.90
2002;DHT22;1003;48.002;7.788;2023-04-16T07:16:04;9.00;99.90
2002;DHT22;1003;48.002;7.788;2023-04-16T07:18:31;8.80;99.90
2002;DHT22;1003;48.002;7.788;2023-04-16T07:20:58;8.70;99.90
2002;DHT22;1003;48.002;7.788;2023-04-16T07:23:27;8.60;99.90
2002;DHT22;1003;48.002;7.788;2023-04-16T07:25:56;8.50;99.90
2002;DHT22;1003;48.002;7.788;2023-04-16T07:28:24;8.60;99.90
2002;DHT22;1003;48.002;7.788;2023-04-16T07:30:51;8.80;99.90
2002;DHT22;1003;48.002;7.788;2023-04-16T07:33:18;8.80;99.90
2002;DHT22;1003;48.002;7.788;2023-04-16T07:35:46;9.00;99.90
2002;DHT22;1003;48.002;7.788;2023-04-16T07:38:13;8.90;99.90
2002;DHT22;1003;48.002;7.788;2023-04-16T07:40:43;8.90;99.90
2002;DHT22;1003;48.002;7.788;2023-04-16T07:43:10;8.80;99.90
2002;DHT22;1003;48.002;7.788;2023-04-16T07:45:38;8.80;99.90
2002;DHT22;1003;48.002;7.788;2023-04-16T07:48:05;8.90;99.90
2002;DHT22;1003;48.002;7.788;2023-04-16T07:50:33;8.90;99.90
2002;DHT22;1003;48.002;7.788;2023-04-16T07:53:00;8.90;99.90
2002;DHT22;1003;48.002;7.788;2023-04-16T07:55:28;8.90;99.90
2002;DHT22;1003;48.002;7.788;2023-04-16T07:57:56;8.90;99.90
2002;DHT22;1003;48.002;7.788;2023-04-16T08:00:23;9.30;99.90
2002;DHT22;1003;48.002;7.788;2023-04-16T08:02:51;9.10;99.90
2002;DHT22;1003;48.002;7.788;2023-04-16T08:05:19;9.20;99.90
2002;DHT22;1003;48.002;7.788;2023-04-16T08:07:47;9.00;99.90
2002;DHT22;1003;48.002;7.788;2023-04-16T08:10:14;8.90;99.90
2002;DHT22;1003;48.002;7.788;2023-04-16T08:12:41;8.90;99.90
2002;DHT22;1003;48.002;7.788;2023-04-16T08:15:10;9.20;99.90
2002;DHT22;1003;48.002;7.788;2023-04-16T08:17:37;9.30;99.90
2002;DHT22;1003;48.002;7.788;2023-04-16T08:20:06;9.40;99.90
2002;DHT22;1003;48.002;7.788;2023-04-16T08:22:33;9.30;99.90
2002;DHT22;1003;48.002;7.788;2023-04-16T08:25:01;9.30;99.90
2002;DHT22;1003;48.002;7.788;2023-04-16T08:27:28;9.40;99.90
2002;DHT22;1003;48.002;7.788;2023-04-16T08:29:56;9.30;99.90
2002;DHT22;1003;48.002;7.788;2023-04-16T08:32:25;9.30;99.90
2002;DHT22;1003;48.002;7.788;2023-04-16T08:34:52;9.50;99.90
2002;DHT22;1003;48.002;7.788;2023-04-16T08:37:19;9.50;99.90
2002;DHT22;1003;48.002;7.788;2023-04-16T08:39:46;9.30;99.90
2002;DHT22;1003;48.002;7.788;2023-04-16T08:42:22;9.30;99.90
2002;DHT22;1003;48.002;7.788;2023-04-16T08:45:03;9.50;99.90
2002;DHT22;1003;48.002;7.788;2023-04-16T08:47:35;9.30;99.90
2002;DHT22;1003;48.002;7.788;2023-04-16T08:50:03;9.20;99.90
2002;DHT22;1003;48.002;7.788;2023-04-16T08:52:31;9.10;99.90
2002;DHT22;1003;48.002;7.788;2023-04-16T08:55:05;9.10;99.90
2002;DHT22;1003;48.002;7.788;2023-04-16T08:57:38;9.40;99.90
2002;DHT22;1003;48.002;7.788;2023-04-16T09:00:11;9.50;99.90
2002;DHT22;1003;48.002;7.788;2023-04-16T09:02:40;9.40;99.90
2002;DHT22;1003;48.002;7.788;2023-04-16T09:05:09;9.40;99.90
2002;DHT22;1003;48.002;7.788;2023-04-16T09:07:37;9.40;99.90
2002;DHT22;1003;48.002;7.788;2023-04-16T09:10:06;9.30;99.90
2002;DHT22;1003;48.002;7.788;2023-04-16T09:12:35;9.40;99.90
2002;DHT22;1003;48.002;7.788;2023-04-16T09:15:02;9.50;99.90
2002;DHT22;1003;48.002;7.788;2023-04-16T09:17:33;9.40;99.90
2002;DHT22;1003;48.002;7.788;2023-04-16T09:20:02;9.50;99.90
2002;DHT22;1003;48.002;7.788;2023-04-16T09:22:33;9.50;99.90
2002;DHT22;1003;48.002;7.788;2023-04-16T09:25:00;9.50;99.90
2002;DHT22;1003;48.002;7.788;2023-04-16T09:27:27;9.60;99.90
2002;DHT22;1003;48.002;7.788;2023-04-16T09:29:55;9.50;99.90
2002;DHT22;1003;48.002;7.788;2023-04-16T09:32:24;9.50;99.90
2002;DHT22;1003;48.002;7.788;2023-04-16T09:34:54;9.70;99.90
2002;DHT22;1003;48.002;7.788;2023-04-16T09:37:24;9.70;99.90
2002;DHT22;1003;48.002;7.788;2023-04-16T09:39:56;9.50;99.90
2002;DHT22;1003;48.002;7.788;2023-04-16T09:42:25;9.50;99.90
2002;DHT22;1003;48.002;7.788;2023-04-16T09:44:53;9.50;99.90
2002;DHT22;1003;48.002;7.788;2023-04-16T09:47:22;9.70;99.90
2002;DHT22;1003;48.002;7.788;2023-04-16T09:49:50;9.70;99.90
2002;DHT22;1003;48.002;7.788;2023-04-16T09:52:18;9.70;99.90
2002;DHT22;1003;48.002;7.788;2023-04-16T09:54:48;9.60;99.90
2002;DHT22;1003;48.002;7.788;2023-04-16T09:57:19;9.80;99.90
2002;DHT22;1003;48.002;7.788;2023-04-16T09:59:48;9.90;99.90
2002;DHT22;1003;48.002;7.788;2023-04-16T10:02:18;9.90;99.90
2002;DHT22;1003;48.002;7.788;2023-04-16T10:04:47;9.80;99.90
2002;DHT22;1003;48.002;7.788;2023-04-16T10:07:15;9.70;99.90
2002;DHT22;1003;48.002;7.788;2023-04-16T10:09:42;9.60;99.90
2002;DHT22;1003;48.002;7.788;2023-04-16T10:12:11;9.50;99.90
2002;DHT22;1003;48.002;7.788;2023-04-16T10:14:38;9.40;99.90
2002;DHT22;1003;48.002;7.788;2023-04-16T10:17:06;9.60;99.90
2002;DHT22;1003;48.002;7.788;2023-04-16T10:19:34;9.50;99.90
2002;DHT22;1003;48.002;7.788;2023-04-16T10:22:02;9.60;99.90
2002;DHT22;1003;48.002;7.788;2023-04-16T10:24:30;9.50;99.90
2002;DHT22;1003;48.002;7.788;2023-04-16T10:26:58;9.40;99.90
2002;DHT22;1003;48.002;7.788;2023-04-16T10:29:28;9.50;99.90
2002;DHT22;1003;48.002;7.788;2023-04-16T10:31:57;9.40;99.90
2002;DHT22;1003;48.002;7.788;2023-04-16T10:34:26;9.40;99.90
2002;DHT22;1003;48.002;7.788;2023-04-16T10:36:57;9.30;99.90
2002;DHT22;1003;48.002;7.788;2023-04-16T10:39:26;9.40;99.90
2002;DHT22;1003;48.002;7.788;2023-04-16T10:42:07;9.60;99.90
2002;DHT22;1003;48.002;7.788;2023-04-16T11:33:09;9.90;99.90
2002;DHT22;1003;48.002;7.788;2023-04-16T11:35:37;10.50;99.90
2002;DHT22;1003;48.002;7.788;2023-04-16T11:38:05;10.30;99.90
2002;DHT22;1003;48.002;7.788;2023-04-16T11:40:33;10.40;99.90
2002;DHT22;1003;48.002;7.788;2023-04-16T11:43:01;10.30;99.90
2002;DHT22;1003;48.002;7.788;2023-04-16T11:45:29;10.50;99.90
2002;DHT22;1003;48.002;7.788;2023-04-16T11:47:56;10.80;99.90
2002;DHT22;1003;48.002;7.788;2023-04-16T11:50:26;10.90;99.90
2002;DHT22;1003;48.002;7.788;2023-04-16T11:52:55;11.10;99.90
2002;DHT22;1003;48.002;7.788;2023-04-16T11:55:28;11.20;99.90
2002;DHT22;1003;48.002;7.788;2023-04-16T11:57:55;11.20;99.90
2002;DHT22;1003;48.002;7.788;2023-04-16T12:00:23;11.50;99.90
2002;DHT22;1003;48.002;7.788;2023-04-16T12:02:52;11.40;99.90
2002;DHT22;1003;48.002;7.788;2023-04-16T12:05:29;11.40;99.90
2002;DHT22;1003;48.002;7.788;2023-04-16T12:07:59;11.40;99.90
2002;DHT22;1003;48.002;7.788;2023-04-16T12:10:28;11.40;99.90
2002;DHT22;1003;48.002;7.788;2023-04-16T12:13:11;11.50;99.90
2002;DHT22;1003;48.002;7.788;2023-04-16T12:15:45;11.50;99.90
2002;DHT22;1003;48.002;7.788;2023-04-16T12:18:13;11.40;99.90
2002;DHT22;1003;48.002;7.788;2023-04-16T12:20:43;11.40;99.90
2002;DHT22;1003;48.002;7.788;2023-04-16T12:23:21;11.50;99.90
2002;DHT22;1003;48.002;7.788;2023-04-16T12:25:50;11.30;99.90
2002;DHT22;1003;48.002;7.788;2023-04-16T12:28:26;11.00;99.90
2002;DHT22;1003;48.002;7.788;2023-04-16T12:30:55;11.00;99.90
2002;DHT22;1003;48.002;7.788;2023-04-16T12:33:22;11.00;99.90
2002;DHT22;1003;48.002;7.788;2023-04-16T12:35:51;11.00;99.90
2002;DHT22;1003;48.002;7.788;2023-04-16T12:38:22;10.90;99.90
2002;DHT22;1003;48.002;7.788;2023-04-16T12:40:50;10.90;99.90
2002;DHT22;1003;48.002;7.788;2023-04-16T12:43:22;10.80;99.90
2002;DHT22;1003;48.002;7.788;2023-04-16T12:45:50;10.80;99.90
2002;DHT22;1003;48.002;7.788;2023-04-16T12:48:17;10.80;99.90
2002;DHT22;1003;48.002;7.788;2023-04-16T12:50:44;10.60;99.90
2002;DHT22;1003;48.002;7.788;2023-04-16T12:53:12;10.50;99.90
2002;DHT22;1003;48.002;7.788;2023-04-16T12:55:39;10.40;99.90
2002;DHT22;1003;48.002;7.788;2023-04-16T12:58:07;10.40;99.90
2002;DHT22;1003;48.002;7.788;2023-04-16T13:00:34;10.30;99.90
2002;DHT22;1003;48.002;7.788;2023-04-16T13:03:01;10.30;99.90
2002;DHT22;1003;48.002;7.788;2023-04-16T13:05:28;10.20;99.90
2002;DHT22;1003;48.002;7.788;2023-04-16T13:07:55;10.30;99.90
2002;DHT22;1003;48.002;7.788;2023-04-16T13:10:24;10.30;99.90
2002;DHT22;1003;48.002;7.788;2023-04-16T13:12:52;10.30;99.90
2002;DHT22;1003;48.002;7.788;2023-04-16T13:15:19;10.30;99.90
2002;DHT22;1003;48.002;7.788;2023-04-16T13:17:46;10.30;99.90
2002;DHT22;1003;48.002;7.788;2023-04-16T13:20:13;10.70;99.90
2002;DHT22;1003;48.002;7.788;2023-04-16T13:22:40;10.80;99.90
2002;DHT22;1003;48.002;7.788;2023-04-16T13:25:08;10.90;99.90
2002;DHT22;1003;48.002;7.788;2023-04-16T13:27:37;11.10;99.90
2002;DHT22;1003;48.002;7.788;2023-04-16T13:30:04;11.20;99.90
2002;DHT22;1003;48.002;7.788;2023-04-16T13:32:32;11.50;99.90
2002;DHT22;1003;48.002;7.788;2023-04-16T13:34:59;11.60;99.90
2002;DHT22;1003;48.002;7.788;2023-04-16T13:37:27;11.80;99.90
2002;DHT22;1003;48.002;7.788;2023-04-16T13:39:54;12.00;99.90
2002;DHT22;1003;48.002;7.788;2023-04-16T13:42:21;12.10;99.90
2002;DHT22;1003;48.002;7.788;2023-04-16T13:44:49;12.30;99.90
2002;DHT22;1003;48.002;7.788;2023-04-16T13:47:18;12.50;99.90
2002;DHT22;1003;48.002;7.788;2023-04-16T13:49:45;12.60;99.90
2002;DHT22;1003;48.002;7.788;2023-04-16T13:52:13;12.80;99.90
2002;DHT22;1003;48.002;7.788;2023-04-16T13:54:40;12.90;99.90
2002;DHT22;1003;48.002;7.788;2023-04-16T13:57:07;13.10;99.90
2002;DHT22;1003;48.002;7.788;2023-04-16T13:59:34;13.20;99.90
2002;DHT22;1003;48.002;7.788;2023-04-16T14:02:02;12.90;99.90
2002;DHT22;1003;48.002;7.788;2023-04-16T14:04:30;12.90;99.90
2002;DHT22;1003;48.002;7.788;2023-04-16T14:06:57;13.00;99.90
2002;DHT22;1003;48.002;7.788;2023-04-16T14:09:24;12.90;99.90
2002;DHT22;1003;48.002;7.788;2023-04-16T14:11:51;12.70;99.90
2002;DHT22;1003;48.002;7.788;2023-04-16T14:14:19;12.90;99.90
2002;DHT22;1003;48.002;7.788;2023-04-16T14:16:46;12.50;99.90
2002;DHT22;1003;48.002;7.788;2023-04-16T14:19:14;12.70;99.90
2002;DHT22;1003;48.002;7.788;2023-04-16T14:21:41;12.30;99.90
2002;DHT22;1003;48.002;7.788;2023-04-16T14:24:09;12.00;99.90
2002;DHT22;1003;48.002;7.788;2023-04-16T14:26:37;11.90;99.90
2002;DHT22;1003;48.002;7.788;2023-04-16T14:29:05;11.90;99.90
2002;DHT22;1003;48.002;7.788;2023-04-16T14:31:32;11.80;99.90
2002;DHT22;1003;48.002;7.788;2023-04-16T14:33:59;11.60;99.90
2002;DHT22;1003;48.002;7.788;2023-04-16T14:36:28;11.60;99.90
2002;DHT22;1003;48.002;7.788;2023-04-16T14:38:55;11.50;99.90
2002;DHT22;1003;48.002;7.788;2023-04-16T14:41:22;11.30;99.90
2002;DHT22;1003;48.002;7.788;2023-04-16T14:43:50;11.20;99.90
2002;DHT22;1003;48.002;7.788;2023-04-16T14:46:17;11.20;99.90
2002;DHT22;1003;48.002;7.788;2023-04-16T14:48:44;11.20;99.90
2002;DHT22;1003;48.002;7.788;2023-04-16T14:51:11;11.20;99.90
2002;DHT22;1003;48.002;7.788;2023-04-16T14:53:40;11.30;99.90
2002;DHT22;1003;48.002;7.788;2023-04-16T14:56:07;11.40;99.90
2002;DHT22;1003;48.002;7.788;2023-04-16T14:58:34;11.40;99.90
2002;DHT22;1003;48.002;7.788;2023-04-16T15:01:01;11.30;99.90
2002;DHT22;1003;48.002;7.788;2023-04-16T15:03:29;11.20;99.90
2002;DHT22;1003;48.002;7.788;2023-04-16T15:05:56;11.30;99.90
2002;DHT22;1003;48.002;7.788;2023-04-16T15:08:23;11.20;99.90
2002;DHT22;1003;48.002;7.788;2023-04-16T15:10:52;11.20;99.90
2002;DHT22;1003;48.002;7.788;2023-04-16T15:13:19;11.10;99.90
2002;DHT22;1003;48.002;7.788;2023-04-16T15:15:46;11.10;99.90
2002;DHT22;1003;48.002;7.788;2023-04-16T15:18:13;11.10;99.90
2002;DHT22;1003;48.002;7.788;2023-04-16T15:20:40;11.30;99.90
2002;DHT22;1003;48.002;7.788;2023-04-16T15:23:07;11.20;99.90
2002;DHT22;1003;48.002;7.788;2023-04-16T15:25:35;11.20;99.90
2002;DHT22;1003;48.002;7.788;2023-04-16T15:28:03;11.00;99.90
2002;DHT22;1003;48.002;7.788;2023-04-16T15:30:31;11.10;99.90
2002;DHT22;1003;48.002;7.788;2023-04-16T15:32:58;10.90;99.90
2002;DHT22;1003;48.002;7.788;2023-04-16T15:35:25;10.90;99.90
2002;DHT22;1003;48.002;7.788;2023-04-16T15:37:52;11.00;99.90
2002;DHT22;1003;48.002;7.788;2023-04-16T15:40:19;11.00;99.90
2002;DHT22;1003;48.002;7.788;2023-04-16T15:42:47;10.90;99.90
2002;DHT22;1003;48.002;7.788;2023-04-16T15:45:15;11.00;99.90
2002;DHT22;1003;48.002;7.788;2023-04-16T15:47:42;10.80;99.90
2002;DHT22;1003;48.002;7.788;2023-04-16T15:50:12;10.80;99.90
2002;DHT22;1003;48.002;7.788;2023-04-16T15:52:39;10.70;99.90
2002;DHT22;1003;48.002;7.788;2023-04-16T15:55:07;11.00;99.90
2002;DHT22;1003;48.002;7.788;2023-04-16T15:57:35;10.80;99.90
2002;DHT22;1003;48.002;7.788;2023-04-16T16:00:03;10.70;99.90
2002;DHT22;1003;48.002;7.788;2023-04-16T16:02:38;10.60;99.90
2002;DHT22;1003;48.002;7.788;2023-04-16T16:05:08;10.60;99.90
2002;DHT22;1003;48.002;7.788;2023-04-16T16:07:36;10.50;99.90
2002;DHT22;1003;48.002;7.788;2023-04-16T16:10:03;10.60;99.90
2002;DHT22;1003;48.002;7.788;2023-04-16T16:12:31;10.60;99.90
2002;DHT22;1003;48.002;7.788;2023-04-16T16:14:58;10.50;99.90
2002;DHT22;1003;48.002;7.788;2023-04-16T16:17:26;10.60;99.90
2002;DHT22;1003;48.002;7.788;2023-04-16T16:19:57;10.50;99.90
2002;DHT22;1003;48.002;7.788;2023-04-16T16:22:24;10.50;99.90
2002;DHT22;1003;48.002;7.788;2023-04-16T16:24:53;10.50;99.90
2002;DHT22;1003;48.002;7.788;2023-04-16T16:27:22;10.50;99.90
2002;DHT22;1003;48.002;7.788;2023-04-16T16:29:49;10.70;99.90
2002;DHT22;1003;48.002;7.788;2023-04-16T16:32:16;10.60;99.90
2002;DHT22;1003;48.002;7.788;2023-04-16T16:34:43;10.50;99.90
2002;DHT22;1003;48.002;7.788;2023-04-16T16:37:13;10.50;99.90
2002;DHT22;1003;48.002;7.788;2023-04-16T16:39:40;10.50;99.90
2002;DHT22;1003;48.002;7.788;2023-04-16T16:42:07;10.50;99.90
2002;DHT22;1003;48.002;7.788;2023-04-16T16:44:35;10.50;99.90
2002;DHT22;1003;48.002;7.788;2023-04-16T16:47:02;10.40;99.90
2002;DHT22;1003;48.002;7.788;2023-04-16T16:49:29;10.40;99.90
2002;DHT22;1003;48.002;7.788;2023-04-16T16:51:57;10.40;99.90
2002;DHT22;1003;48.002;7.788;2023-04-16T16:54:25;10.50;99.90
2002;DHT22;1003;48.002;7.788;2023-04-16T16:56:52;10.50;99.90
2002;DHT22;1003;48.002;7.788;2023-04-16T16:59:19;10.50;99.90
2002;DHT22;1003;48.002;7.788;2023-04-16T17:01:47;10.50;99.90
2002;DHT22;1003;48.002;7.788;2023-04-16T17:04:14;10.50;99.90
2002;DHT22;1003;48.002;7.788;2023-04-16T17:06:41;10.40;99.90
2002;DHT22;1003;48.002;7.788;2023-04-16T17:09:08;10.50;99.90